KMBL/MBL METAR and TAF weather

Enter ICAO airport designator
Station Type Date Time Source
KMBL METAR 2019/02/20 06:56 UTC NOAA

KMBL 200656Z AUTO 12004KT 10SM CLR M07/M10 A3037 RMK AO2 SLP308 T10671100 FZRANO


Station Type Date Time Source
KMBL Decoded METAR 2019/02/20 06:56 UTC NOAA

Manistee, Manistee County-Blacker Airport, MI, United States (KMBL) 44-16N 086-15W
Feb 20, 2019 - 01:56 AM EST / 2019.02.20 0656 UTC
Wind: from the ESE (120 degrees) at 5 MPH (4 KT):0
Visibility: 10 mile(s):0
Sky conditions: clear
Temperature: 19.9 F (-6.7 C)
Windchill: 12 F (-11 C):1
Dew Point: 14.0 F (-10.0 C)
Relative Humidity: 77%
Pressure (altimeter): 30.37 in. Hg (1028 hPa)
ob: KMBL 200656Z AUTO 12004KT 10SM CLR M07/M10 A3037 RMK AO2 SLP308 T10671100 FZRANO
cycle: 7

Station Type Date Time Source
KMBL TAF 2019/02/20 06:30 UTC NOAA

TAF KMBL 200528Z 2006/2106 VRB03KT P6SM BKN150
FM201200 11005KT P6SM VCSH OVC070
FM201500 11010G18KT 3SM -SN OVC025
FM202000 12013G22KT 2SM -SN OVC020
FM210200 16007KT 2SM -SN OVC015
FM210300 16007KT 5SM -SNDZ OVC015
FM210500 22010G18KT 6SM -SNDZ OVC015


Example: see airport list